sensor_id;sensor_type;location;lat;lon;timestamp;P1;durP1;ratioP1;P2;durP2;ratioP2
65187;SDS011;51775;51.148;6.950;2023-02-14T00:01:35;2.30;;;1.35;;
65187;SDS011;51775;51.148;6.950;2023-02-14T00:04:01;2.22;;;1.40;;
65187;SDS011;51775;51.148;6.950;2023-02-14T00:06:26;2.35;;;1.48;;
65187;SDS011;51775;51.148;6.950;2023-02-14T00:08:52;2.10;;;1.40;;
65187;SDS011;51775;51.148;6.950;2023-02-14T00:11:17;2.33;;;1.40;;
65187;SDS011;51775;51.148;6.950;2023-02-14T00:13:43;2.20;;;1.40;;
65187;SDS011;51775;51.148;6.950;2023-02-14T00:16:08;2.47;;;1.40;;
65187;SDS011;51775;51.148;6.950;2023-02-14T00:18:33;2.25;;;1.40;;
65187;SDS011;51775;51.148;6.950;2023-02-14T00:20:59;2.85;;;1.60;;
65187;SDS011;51775;51.148;6.950;2023-02-14T00:23:25;2.53;;;1.60;;
65187;SDS011;51775;51.148;6.950;2023-02-14T00:25:50;2.30;;;1.50;;
65187;SDS011;51775;51.148;6.950;2023-02-14T00:28:15;2.47;;;1.60;;
65187;SDS011;51775;51.148;6.950;2023-02-14T00:30:40;2.92;;;1.70;;
65187;SDS011;51775;51.148;6.950;2023-02-14T00:33:06;2.58;;;1.30;;
65187;SDS011;51775;51.148;6.950;2023-02-14T00:35:31;2.67;;;1.50;;
65187;SDS011;51775;51.148;6.950;2023-02-14T00:37:56;1.75;;;1.30;;
65187;SDS011;51775;51.148;6.950;2023-02-14T00:40:21;3.30;;;1.50;;
65187;SDS011;51775;51.148;6.950;2023-02-14T00:42:47;3.00;;;1.60;;
65187;SDS011;51775;51.148;6.950;2023-02-14T00:45:12;2.53;;;1.50;;
65187;SDS011;51775;51.148;6.950;2023-02-14T00:47:37;2.30;;;1.60;;
65187;SDS011;51775;51.148;6.950;2023-02-14T00:50:02;2.60;;;1.50;;
65187;SDS011;51775;51.148;6.950;2023-02-14T00:52:28;3.22;;;1.65;;
65187;SDS011;51775;51.148;6.950;2023-02-14T00:54:55;2.40;;;1.50;;
65187;SDS011;51775;51.148;6.950;2023-02-14T00:57:20;2.80;;;1.67;;
65187;SDS011;51775;51.148;6.950;2023-02-14T00:59:45;2.30;;;1.30;;
65187;SDS011;51775;51.148;6.950;2023-02-14T01:02:11;2.53;;;1.50;;
65187;SDS011;51775;51.148;6.950;2023-02-14T01:04:36;2.20;;;1.50;;
65187;SDS011;51775;51.148;6.950;2023-02-14T01:07:01;2.70;;;1.42;;
65187;SDS011;51775;51.148;6.950;2023-02-14T01:09:26;2.58;;;1.65;;
65187;SDS011;51775;51.148;6.950;2023-02-14T01:11:52;2.55;;;1.73;;
65187;SDS011;51775;51.148;6.950;2023-02-14T01:14:17;2.30;;;1.52;;
65187;SDS011;51775;51.148;6.950;2023-02-14T01:19:45;2.53;;;1.73;;
65187;SDS011;51775;51.148;6.950;2023-02-14T01:31:24;2.58;;;1.60;;
65187;SDS011;51775;51.148;6.950;2023-02-14T01:33:50;2.67;;;1.70;;
65187;SDS011;51775;51.148;6.950;2023-02-14T01:36:21;2.38;;;1.65;;
65187;SDS011;51775;51.148;6.950;2023-02-14T01:38:51;2.40;;;1.70;;
65187;SDS011;51775;51.148;6.950;2023-02-14T01:41:18;2.60;;;1.70;;
65187;SDS011;51775;51.148;6.950;2023-02-14T01:46:21;2.83;;;1.70;;
65187;SDS011;51775;51.148;6.950;2023-02-14T01:48:47;2.60;;;1.80;;
65187;SDS011;51775;51.148;6.950;2023-02-14T01:51:13;3.03;;;1.83;;
65187;SDS011;51775;51.148;6.950;2023-02-14T01:53:40;2.53;;;1.50;;
65187;SDS011;51775;51.148;6.950;2023-02-14T01:56:07;2.50;;;1.70;;
65187;SDS011;51775;51.148;6.950;2023-02-14T01:58:37;2.53;;;1.63;;
65187;SDS011;51775;51.148;6.950;2023-02-14T02:01:05;2.72;;;1.65;;
65187;SDS011;51775;51.148;6.950;2023-02-14T02:03:35;2.70;;;1.85;;
65187;SDS011;51775;51.148;6.950;2023-02-14T02:06:09;2.50;;;1.70;;
65187;SDS011;51775;51.148;6.950;2023-02-14T02:08:43;3.40;;;1.90;;
65187;SDS011;51775;51.148;6.950;2023-02-14T02:11:16;3.28;;;1.80;;
65187;SDS011;51775;51.148;6.950;2023-02-14T02:13:41;3.10;;;1.70;;
65187;SDS011;51775;51.148;6.950;2023-02-14T02:21:58;2.60;;;1.80;;
65187;SDS011;51775;51.148;6.950;2023-02-14T02:25:08;2.50;;;1.67;;
65187;SDS011;51775;51.148;6.950;2023-02-14T02:31:01;2.70;;;1.67;;
65187;SDS011;51775;51.148;6.950;2023-02-14T02:36:09;3.15;;;1.70;;
65187;SDS011;51775;51.148;6.950;2023-02-14T02:38:45;2.70;;;1.80;;
65187;SDS011;51775;51.148;6.950;2023-02-14T02:47:28;2.22;;;1.50;;
65187;SDS011;51775;51.148;6.950;2023-02-14T02:52:51;2.40;;;1.60;;
65187;SDS011;51775;51.148;6.950;2023-02-14T02:58:17;2.05;;;1.40;;
65187;SDS011;51775;51.148;6.950;2023-02-14T03:00:44;2.85;;;1.70;;
65187;SDS011;51775;51.148;6.950;2023-02-14T03:03:12;2.13;;;1.50;;
65187;SDS011;51775;51.148;6.950;2023-02-14T03:05:38;2.90;;;1.70;;
65187;SDS011;51775;51.148;6.950;2023-02-14T03:08:04;2.10;;;1.45;;
65187;SDS011;51775;51.148;6.950;2023-02-14T03:10:31;2.20;;;1.58;;
65187;SDS011;51775;51.148;6.950;2023-02-14T03:13:11;2.60;;;1.67;;
65187;SDS011;51775;51.148;6.950;2023-02-14T03:21:05;2.60;;;1.63;;
65187;SDS011;51775;51.148;6.950;2023-02-14T03:26:48;2.63;;;1.63;;
65187;SDS011;51775;51.148;6.950;2023-02-14T03:32:01;2.53;;;1.60;;
65187;SDS011;51775;51.148;6.950;2023-02-14T03:34:45;2.67;;;1.60;;
65187;SDS011;51775;51.148;6.950;2023-02-14T03:37:20;2.55;;;1.63;;
65187;SDS011;51775;51.148;6.950;2023-02-14T03:42:20;2.13;;;1.50;;
65187;SDS011;51775;51.148;6.950;2023-02-14T03:44:49;3.00;;;1.90;;
65187;SDS011;51775;51.148;6.950;2023-02-14T03:47:18;2.92;;;1.50;;
65187;SDS011;51775;51.148;6.950;2023-02-14T03:49:49;3.03;;;1.95;;
65187;SDS011;51775;51.148;6.950;2023-02-14T03:52:17;3.10;;;1.80;;
65187;SDS011;51775;51.148;6.950;2023-02-14T03:54:45;2.75;;;1.70;;
65187;SDS011;51775;51.148;6.950;2023-02-14T03:57:16;2.40;;;1.70;;
65187;SDS011;51775;51.148;6.950;2023-02-14T03:59:45;2.50;;;1.70;;
65187;SDS011;51775;51.148;6.950;2023-02-14T04:05:02;2.53;;;1.73;;
65187;SDS011;51775;51.148;6.950;2023-02-14T04:07:31;2.53;;;1.80;;
65187;SDS011;51775;51.148;6.950;2023-02-14T04:10:11;3.08;;;1.90;;
65187;SDS011;51775;51.148;6.950;2023-02-14T04:12:36;2.50;;;1.60;;
65187;SDS011;51775;51.148;6.950;2023-02-14T04:15:02;2.92;;;1.85;;
65187;SDS011;51775;51.148;6.950;2023-02-14T04:17:28;3.30;;;1.92;;
65187;SDS011;51775;51.148;6.950;2023-02-14T04:19:53;2.30;;;1.55;;
65187;SDS011;51775;51.148;6.950;2023-02-14T04:22:18;2.53;;;1.58;;
65187;SDS011;51775;51.148;6.950;2023-02-14T04:24:44;2.90;;;1.65;;
65187;SDS011;51775;51.148;6.950;2023-02-14T04:27:09;2.88;;;1.60;;
65187;SDS011;51775;51.148;6.950;2023-02-14T04:29:44;2.70;;;1.60;;
65187;SDS011;51775;51.148;6.950;2023-02-14T04:32:16;2.67;;;1.50;;
65187;SDS011;51775;51.148;6.950;2023-02-14T04:34:45;2.20;;;1.40;;
65187;SDS011;51775;51.148;6.950;2023-02-14T04:37:11;2.47;;;1.50;;
65187;SDS011;51775;51.148;6.950;2023-02-14T04:39:37;2.80;;;1.60;;
65187;SDS011;51775;51.148;6.950;2023-02-14T04:42:03;2.92;;;1.70;;
65187;SDS011;51775;51.148;6.950;2023-02-14T04:44:29;2.70;;;1.70;;
65187;SDS011;51775;51.148;6.950;2023-02-14T04:46:54;2.97;;;1.63;;
65187;SDS011;51775;51.148;6.950;2023-02-14T04:49:19;3.00;;;1.70;;
65187;SDS011;51775;51.148;6.950;2023-02-14T04:51:45;2.70;;;1.80;;
65187;SDS011;51775;51.148;6.950;2023-02-14T04:54:10;3.10;;;1.70;;
65187;SDS011;51775;51.148;6.950;2023-02-14T04:56:36;2.65;;;1.75;;
65187;SDS011;51775;51.148;6.950;2023-02-14T04:59:01;2.08;;;1.27;;
65187;SDS011;51775;51.148;6.950;2023-02-14T05:01:27;2.70;;;1.75;;
65187;SDS011;51775;51.148;6.950;2023-02-14T05:03:52;2.85;;;1.60;;
65187;SDS011;51775;51.148;6.950;2023-02-14T05:06:17;2.95;;;1.80;;
65187;SDS011;51775;51.148;6.950;2023-02-14T05:08:42;2.80;;;1.90;;
65187;SDS011;51775;51.148;6.950;2023-02-14T05:11:08;2.60;;;1.60;;
65187;SDS011;51775;51.148;6.950;2023-02-14T05:13:33;2.60;;;1.70;;
65187;SDS011;51775;51.148;6.950;2023-02-14T05:15:58;2.42;;;1.50;;
65187;SDS011;51775;51.148;6.950;2023-02-14T05:18:24;3.05;;;1.60;;
65187;SDS011;51775;51.148;6.950;2023-02-14T05:20:50;2.60;;;1.60;;
65187;SDS011;51775;51.148;6.950;2023-02-14T05:23:16;2.40;;;1.55;;
65187;SDS011;51775;51.148;6.950;2023-02-14T05:25:42;2.35;;;1.63;;
65187;SDS011;51775;51.148;6.950;2023-02-14T05:28:08;2.90;;;1.67;;
65187;SDS011;51775;51.148;6.950;2023-02-14T05:30:34;2.53;;;1.70;;
65187;SDS011;51775;51.148;6.950;2023-02-14T05:33:01;2.88;;;1.70;;
65187;SDS011;51775;51.148;6.950;2023-02-14T05:35:26;2.55;;;1.60;;
65187;SDS011;51775;51.148;6.950;2023-02-14T05:37:52;2.40;;;1.65;;
65187;SDS011;51775;51.148;6.950;2023-02-14T05:40:17;2.40;;;1.70;;
65187;SDS011;51775;51.148;6.950;2023-02-14T05:42:42;2.33;;;1.67;;
65187;SDS011;51775;51.148;6.950;2023-02-14T05:45:08;3.35;;;1.92;;
65187;SDS011;51775;51.148;6.950;2023-02-14T05:47:34;2.13;;;1.50;;
65187;SDS011;51775;51.148;6.950;2023-02-14T05:49:59;2.60;;;1.60;;
65187;SDS011;51775;51.148;6.950;2023-02-14T05:52:24;2.65;;;1.70;;
65187;SDS011;51775;51.148;6.950;2023-02-14T05:54:50;2.38;;;1.45;;
65187;SDS011;51775;51.148;6.950;2023-02-14T05:57:15;2.38;;;1.60;;
65187;SDS011;51775;51.148;6.950;2023-02-14T05:59:41;2.63;;;1.70;;
65187;SDS011;51775;51.148;6.950;2023-02-14T06:02:06;3.10;;;1.83;;
65187;SDS011;51775;51.148;6.950;2023-02-14T06:04:31;2.40;;;1.65;;
65187;SDS011;51775;51.148;6.950;2023-02-14T06:06:56;2.35;;;1.60;;
65187;SDS011;51775;51.148;6.950;2023-02-14T06:09:22;2.97;;;1.90;;
65187;SDS011;51775;51.148;6.950;2023-02-14T06:11:47;2.90;;;1.90;;
65187;SDS011;51775;51.148;6.950;2023-02-14T06:14:13;2.72;;;1.60;;
65187;SDS011;51775;51.148;6.950;2023-02-14T06:16:38;2.60;;;1.60;;
65187;SDS011;51775;51.148;6.950;2023-02-14T06:19:03;2.55;;;1.60;;
65187;SDS011;51775;51.148;6.950;2023-02-14T06:21:29;3.00;;;1.50;;
65187;SDS011;51775;51.148;6.950;2023-02-14T06:23:54;2.88;;;1.65;;
65187;SDS011;51775;51.148;6.950;2023-02-14T06:26:19;2.58;;;1.52;;
65187;SDS011;51775;51.148;6.950;2023-02-14T06:28:45;2.38;;;1.50;;
65187;SDS011;51775;51.148;6.950;2023-02-14T06:31:14;2.50;;;1.60;;
65187;SDS011;51775;51.148;6.950;2023-02-14T06:33:42;2.65;;;1.40;;
65187;SDS011;51775;51.148;6.950;2023-02-14T06:36:08;2.20;;;1.20;;
65187;SDS011;51775;51.148;6.950;2023-02-14T06:38:33;2.40;;;1.30;;
65187;SDS011;51775;51.148;6.950;2023-02-14T06:41:03;3.22;;;1.60;;
65187;SDS011;51775;51.148;6.950;2023-02-14T06:43:30;2.85;;;1.52;;
65187;SDS011;51775;51.148;6.950;2023-02-14T06:45:55;3.10;;;1.50;;
65187;SDS011;51775;51.148;6.950;2023-02-14T06:48:21;2.05;;;1.30;;
65187;SDS011;51775;51.148;6.950;2023-02-14T06:50:46;2.13;;;1.40;;
65187;SDS011;51775;51.148;6.950;2023-02-14T06:53:11;2.42;;;1.40;;
65187;SDS011;51775;51.148;6.950;2023-02-14T06:55:37;2.10;;;1.30;;
65187;SDS011;51775;51.148;6.950;2023-02-14T06:58:02;4.05;;;1.67;;
65187;SDS011;51775;51.148;6.950;2023-02-14T07:00:27;2.83;;;1.42;;
65187;SDS011;51775;51.148;6.950;2023-02-14T07:02:53;2.03;;;1.38;;
65187;SDS011;51775;51.148;6.950;2023-02-14T07:05:18;2.50;;;1.42;;
65187;SDS011;51775;51.148;6.950;2023-02-14T07:07:43;2.45;;;1.63;;
65187;SDS011;51775;51.148;6.950;2023-02-14T07:10:09;2.30;;;1.40;;
65187;SDS011;51775;51.148;6.950;2023-02-14T07:12:35;2.85;;;1.80;;
65187;SDS011;51775;51.148;6.950;2023-02-14T07:15:00;3.13;;;1.50;;
65187;SDS011;51775;51.148;6.950;2023-02-14T07:17:25;3.15;;;1.73;;
65187;SDS011;51775;51.148;6.950;2023-02-14T07:19:50;2.60;;;1.50;;
65187;SDS011;51775;51.148;6.950;2023-02-14T07:22:16;2.83;;;1.63;;
65187;SDS011;51775;51.148;6.950;2023-02-14T07:24:41;2.80;;;1.70;;
65187;SDS011;51775;51.148;6.950;2023-02-14T07:27:06;2.42;;;1.50;;
65187;SDS011;51775;51.148;6.950;2023-02-14T07:29:32;2.20;;;1.30;;
65187;SDS011;51775;51.148;6.950;2023-02-14T07:31:57;2.63;;;1.77;;
65187;SDS011;51775;51.148;6.950;2023-02-14T07:34:22;2.97;;;1.83;;
65187;SDS011;51775;51.148;6.950;2023-02-14T07:36:49;2.53;;;1.40;;
65187;SDS011;51775;51.148;6.950;2023-02-14T07:39:14;2.40;;;1.45;;
65187;SDS011;51775;51.148;6.950;2023-02-14T07:41:39;2.75;;;1.42;;
65187;SDS011;51775;51.148;6.950;2023-02-14T07:44:04;2.42;;;1.30;;
65187;SDS011;51775;51.148;6.950;2023-02-14T07:46:30;3.35;;;2.10;;
65187;SDS011;51775;51.148;6.950;2023-02-14T07:48:55;3.17;;;2.00;;
65187;SDS011;51775;51.148;6.950;2023-02-14T07:51:20;3.83;;;2.17;;
65187;SDS011;51775;51.148;6.950;2023-02-14T07:53:45;6.10;;;2.30;;
65187;SDS011;51775;51.148;6.950;2023-02-14T07:56:11;3.85;;;2.47;;
65187;SDS011;51775;51.148;6.950;2023-02-14T07:58:36;4.22;;;2.88;;
65187;SDS011;51775;51.148;6.950;2023-02-14T08:01:01;4.03;;;2.90;;
65187;SDS011;51775;51.148;6.950;2023-02-14T08:03:26;4.50;;;3.08;;
65187;SDS011;51775;51.148;6.950;2023-02-14T08:05:52;4.38;;;2.80;;
65187;SDS011;51775;51.148;6.950;2023-02-14T08:08:17;3.65;;;2.40;;
65187;SDS011;51775;51.148;6.950;2023-02-14T08:10:42;3.72;;;2.70;;
65187;SDS011;51775;51.148;6.950;2023-02-14T08:13:08;3.75;;;2.70;;
65187;SDS011;51775;51.148;6.950;2023-02-14T08:15:33;4.65;;;2.70;;
65187;SDS011;51775;51.148;6.950;2023-02-14T08:17:59;5.40;;;2.90;;
65187;SDS011;51775;51.148;6.950;2023-02-14T08:20:24;3.85;;;2.65;;
65187;SDS011;51775;51.148;6.950;2023-02-14T08:22:50;4.45;;;2.63;;
65187;SDS011;51775;51.148;6.950;2023-02-14T08:25:15;5.90;;;2.47;;
65187;SDS011;51775;51.148;6.950;2023-02-14T08:27:40;4.82;;;2.42;;
65187;SDS011;51775;51.148;6.950;2023-02-14T08:30:05;3.88;;;2.58;;
65187;SDS011;51775;51.148;6.950;2023-02-14T08:32:33;4.15;;;2.65;;
65187;SDS011;51775;51.148;6.950;2023-02-14T08:34:58;5.13;;;2.63;;
65187;SDS011;51775;51.148;6.950;2023-02-14T08:37:23;4.10;;;2.50;;
65187;SDS011;51775;51.148;6.950;2023-02-14T08:39:49;4.40;;;2.90;;
65187;SDS011;51775;51.148;6.950;2023-02-14T08:42:14;4.20;;;2.90;;
65187;SDS011;51775;51.148;6.950;2023-02-14T08:44:39;4.30;;;2.67;;
65187;SDS011;51775;51.148;6.950;2023-02-14T08:47:05;5.18;;;2.90;;
65187;SDS011;51775;51.148;6.950;2023-02-14T08:49:30;4.75;;;2.67;;
65187;SDS011;51775;51.148;6.950;2023-02-14T08:51:55;4.20;;;2.55;;
65187;SDS011;51775;51.148;6.950;2023-02-14T08:54:20;4.93;;;2.97;;
65187;SDS011;51775;51.148;6.950;2023-02-14T08:56:46;4.13;;;2.72;;
65187;SDS011;51775;51.148;6.950;2023-02-14T08:59:11;4.28;;;2.55;;
65187;SDS011;51775;51.148;6.950;2023-02-14T09:01:36;4.65;;;2.78;;
65187;SDS011;51775;51.148;6.950;2023-02-14T09:04:01;4.00;;;2.75;;
65187;SDS011;51775;51.148;6.950;2023-02-14T09:06:27;4.13;;;2.60;;
65187;SDS011;51775;51.148;6.950;2023-02-14T09:08:52;4.70;;;3.03;;
65187;SDS011;51775;51.148;6.950;2023-02-14T09:11:18;4.15;;;2.80;;
65187;SDS011;51775;51.148;6.950;2023-02-14T09:13:45;4.40;;;2.83;;
65187;SDS011;51775;51.148;6.950;2023-02-14T09:16:11;4.28;;;2.85;;
65187;SDS011;51775;51.148;6.950;2023-02-14T09:18:38;4.55;;;3.03;;
65187;SDS011;51775;51.148;6.950;2023-02-14T09:21:07;4.65;;;2.95;;
65187;SDS011;51775;51.148;6.950;2023-02-14T09:23:34;5.65;;;3.03;;
65187;SDS011;51775;51.148;6.950;2023-02-14T09:26:00;4.30;;;2.90;;
65187;SDS011;51775;51.148;6.950;2023-02-14T09:28:29;4.90;;;2.95;;
65187;SDS011;51775;51.148;6.950;2023-02-14T09:30:54;4.20;;;2.70;;
65187;SDS011;51775;51.148;6.950;2023-02-14T09:33:20;3.78;;;2.63;;
65187;SDS011;51775;51.148;6.950;2023-02-14T09:35:45;4.10;;;2.80;;
65187;SDS011;51775;51.148;6.950;2023-02-14T09:38:10;4.03;;;2.70;;
65187;SDS011;51775;51.148;6.950;2023-02-14T09:40:36;4.13;;;2.58;;
65187;SDS011;51775;51.148;6.950;2023-02-14T09:45:27;4.17;;;2.70;;
65187;SDS011;51775;51.148;6.950;2023-02-14T09:50:59;4.07;;;2.60;;
65187;SDS011;51775;51.148;6.950;2023-02-14T09:53:31;4.63;;;3.00;;
65187;SDS011;51775;51.148;6.950;2023-02-14T09:58:35;5.18;;;3.13;;
65187;SDS011;51775;51.148;6.950;2023-02-14T10:03:57;4.32;;;2.90;;
65187;SDS011;51775;51.148;6.950;2023-02-14T10:06:47;4.13;;;2.72;;
65187;SDS011;51775;51.148;6.950;2023-02-14T10:14:48;4.15;;;2.88;;
65187;SDS011;51775;51.148;6.950;2023-02-14T10:17:21;4.72;;;2.92;;
65187;SDS011;51775;51.148;6.950;2023-02-14T10:19:56;5.00;;;3.05;;
65187;SDS011;51775;51.148;6.950;2023-02-14T10:22:39;5.53;;;2.92;;
65187;SDS011;51775;51.148;6.950;2023-02-14T10:25:56;4.85;;;2.90;;
65187;SDS011;51775;51.148;6.950;2023-02-14T10:28:03;4.70;;;2.88;;
65187;SDS011;51775;51.148;6.950;2023-02-14T10:30:37;4.20;;;2.90;;
65187;SDS011;51775;51.148;6.950;2023-02-14T10:33:15;5.22;;;3.25;;
65187;SDS011;51775;51.148;6.950;2023-02-14T10:35:51;4.38;;;2.92;;
65187;SDS011;51775;51.148;6.950;2023-02-14T10:38:31;5.53;;;3.15;;
65187;SDS011;51775;51.148;6.950;2023-02-14T10:55:14;4.38;;;3.00;;
65187;SDS011;51775;51.148;6.950;2023-02-14T10:57:44;4.30;;;2.72;;
65187;SDS011;51775;51.148;6.950;2023-02-14T11:00:22;6.20;;;3.22;;
65187;SDS011;51775;51.148;6.950;2023-02-14T11:02:58;4.85;;;3.10;;
65187;SDS011;51775;51.148;6.950;2023-02-14T11:05:45;4.30;;;2.97;;
65187;SDS011;51775;51.148;6.950;2023-02-14T11:10:53;4.78;;;3.17;;
65187;SDS011;51775;51.148;6.950;2023-02-14T11:13:28;4.35;;;3.05;;
65187;SDS011;51775;51.148;6.950;2023-02-14T11:15:59;5.13;;;3.38;;
65187;SDS011;51775;51.148;6.950;2023-02-14T11:18:29;6.35;;;3.13;;
65187;SDS011;51775;51.148;6.950;2023-02-14T11:20:59;4.32;;;2.95;;
65187;SDS011;51775;51.148;6.950;2023-02-14T11:23:24;4.35;;;2.97;;
65187;SDS011;51775;51.148;6.950;2023-02-14T11:25:50;5.23;;;2.90;;
65187;SDS011;51775;51.148;6.950;2023-02-14T11:28:18;5.05;;;3.30;;
65187;SDS011;51775;51.148;6.950;2023-02-14T11:30:44;4.95;;;3.08;;
65187;SDS011;51775;51.148;6.950;2023-02-14T11:33:11;5.07;;;3.20;;
65187;SDS011;51775;51.148;6.950;2023-02-14T11:35:50;5.10;;;3.10;;
65187;SDS011;51775;51.148;6.950;2023-02-14T11:40:55;3.85;;;2.80;;
65187;SDS011;51775;51.148;6.950;2023-02-14T11:43:30;5.07;;;3.00;;
65187;SDS011;51775;51.148;6.950;2023-02-14T11:48:58;4.88;;;2.95;;
65187;SDS011;51775;51.148;6.950;2023-02-14T11:51:27;4.00;;;2.67;;
65187;SDS011;51775;51.148;6.950;2023-02-14T11:53:58;4.07;;;2.95;;
65187;SDS011;51775;51.148;6.950;2023-02-14T11:56:26;3.92;;;2.70;;
65187;SDS011;51775;51.148;6.950;2023-02-14T11:59:09;4.43;;;3.20;;
65187;SDS011;51775;51.148;6.950;2023-02-14T12:01:38;5.57;;;3.20;;
65187;SDS011;51775;51.148;6.950;2023-02-14T12:04:12;4.60;;;3.13;;
65187;SDS011;51775;51.148;6.950;2023-02-14T12:06:41;4.13;;;2.88;;
65187;SDS011;51775;51.148;6.950;2023-02-14T12:09:10;4.90;;;3.30;;
65187;SDS011;51775;51.148;6.950;2023-02-14T12:11:35;4.85;;;3.25;;
65187;SDS011;51775;51.148;6.950;2023-02-14T12:14:01;4.40;;;2.92;;
65187;SDS011;51775;51.148;6.950;2023-02-14T12:16:28;5.03;;;3.13;;
65187;SDS011;51775;51.148;6.950;2023-02-14T12:19:02;4.60;;;3.20;;
65187;SDS011;51775;51.148;6.950;2023-02-14T12:21:40;4.88;;;3.38;;
65187;SDS011;51775;51.148;6.950;2023-02-14T12:24:18;5.75;;;3.40;;
65187;SDS011;51775;51.148;6.950;2023-02-14T12:27:08;3.80;;;3.00;;
65187;SDS011;51775;51.148;6.950;2023-02-14T12:32:25;3.73;;;2.73;;
65187;SDS011;51775;51.148;6.950;2023-02-14T12:35:00;4.72;;;3.00;;
65187;SDS011;51775;51.148;6.950;2023-02-14T12:37:36;5.78;;;3.00;;
65187;SDS011;51775;51.148;6.950;2023-02-14T12:40:17;5.50;;;3.30;;
65187;SDS011;51775;51.148;6.950;2023-02-14T12:48:31;4.10;;;2.67;;
65187;SDS011;51775;51.148;6.950;2023-02-14T12:51:20;4.82;;;3.30;;
65187;SDS011;51775;51.148;6.950;2023-02-14T13:05:00;4.60;;;3.10;;
65187;SDS011;51775;51.148;6.950;2023-02-14T13:07:33;5.13;;;3.30;;
65187;SDS011;51775;51.148;6.950;2023-02-14T13:10:22;5.40;;;3.10;;
65187;SDS011;51775;51.148;6.950;2023-02-14T13:13:16;5.35;;;3.30;;
65187;SDS011;51775;51.148;6.950;2023-02-14T13:16:24;4.88;;;3.10;;
65187;SDS011;51775;51.148;6.950;2023-02-14T13:18:48;5.15;;;3.05;;
65187;SDS011;51775;51.148;6.950;2023-02-14T13:21:26;5.73;;;3.17;;
65187;SDS011;51775;51.148;6.950;2023-02-14T13:23:56;6.55;;;2.88;;
65187;SDS011;51775;51.148;6.950;2023-02-14T13:26:34;4.50;;;2.97;;
65187;SDS011;51775;51.148;6.950;2023-02-14T13:29:03;5.22;;;2.80;;
65187;SDS011;51775;51.148;6.950;2023-02-14T13:31:31;4.35;;;3.10;;
65187;SDS011;51775;51.148;6.950;2023-02-14T13:33:59;4.68;;;2.92;;
65187;SDS011;51775;51.148;6.950;2023-02-14T13:36:32;4.72;;;3.10;;
65187;SDS011;51775;51.148;6.950;2023-02-14T13:38:58;4.63;;;3.08;;
65187;SDS011;51775;51.148;6.950;2023-02-14T13:41:25;4.65;;;3.20;;
65187;SDS011;51775;51.148;6.950;2023-02-14T13:47:02;4.93;;;3.20;;
65187;SDS011;51775;51.148;6.950;2023-02-14T13:49:04;4.32;;;3.00;;
65187;SDS011;51775;51.148;6.950;2023-02-14T13:52:10;4.88;;;3.10;;
65187;SDS011;51775;51.148;6.950;2023-02-14T13:54:46;4.95;;;3.03;;
65187;SDS011;51775;51.148;6.950;2023-02-14T13:57:28;5.63;;;3.08;;
65187;SDS011;51775;51.148;6.950;2023-02-14T14:00:21;4.85;;;2.97;;
65187;SDS011;51775;51.148;6.950;2023-02-14T14:02:59;4.63;;;3.30;;
65187;SDS011;51775;51.148;6.950;2023-02-14T14:13:52;5.10;;;3.10;;
65187;SDS011;51775;51.148;6.950;2023-02-14T14:18:48;4.68;;;3.00;;
65187;SDS011;51775;51.148;6.950;2023-02-14T14:21:20;8.43;;;3.50;;
65187;SDS011;51775;51.148;6.950;2023-02-14T14:27:12;5.85;;;2.95;;
65187;SDS011;51775;51.148;6.950;2023-02-14T14:29:57;5.63;;;3.17;;
65187;SDS011;51775;51.148;6.950;2023-02-14T14:32:29;4.80;;;3.00;;
65187;SDS011;51775;51.148;6.950;2023-02-14T14:34:57;5.10;;;2.92;;
65187;SDS011;51775;51.148;6.950;2023-02-14T14:37:25;4.70;;;2.97;;
65187;SDS011;51775;51.148;6.950;2023-02-14T14:39:56;5.10;;;2.90;;
65187;SDS011;51775;51.148;6.950;2023-02-14T14:42:24;3.88;;;2.70;;
65187;SDS011;51775;51.148;6.950;2023-02-14T14:44:53;7.50;;;3.00;;
65187;SDS011;51775;51.148;6.950;2023-02-14T14:47:26;5.15;;;3.38;;
65187;SDS011;51775;51.148;6.950;2023-02-14T14:50:05;5.10;;;3.08;;
65187;SDS011;51775;51.148;6.950;2023-02-14T14:55:01;4.65;;;2.85;;
65187;SDS011;51775;51.148;6.950;2023-02-14T14:57:28;4.72;;;2.90;;
65187;SDS011;51775;51.148;6.950;2023-02-14T15:00:04;4.22;;;2.85;;
65187;SDS011;51775;51.148;6.950;2023-02-14T15:02:31;5.45;;;3.30;;
65187;SDS011;51775;51.148;6.950;2023-02-14T15:04:56;4.90;;;3.00;;
65187;SDS011;51775;51.148;6.950;2023-02-14T15:07:34;4.85;;;2.90;;
65187;SDS011;51775;51.148;6.950;2023-02-14T15:09:59;11.73;;;3.05;;
65187;SDS011;51775;51.148;6.950;2023-02-14T15:12:25;7.95;;;3.10;;
65187;SDS011;51775;51.148;6.950;2023-02-14T15:14:51;4.65;;;2.88;;
65187;SDS011;51775;51.148;6.950;2023-02-14T15:17:18;6.45;;;3.10;;
65187;SDS011;51775;51.148;6.950;2023-02-14T15:19:46;5.25;;;3.33;;
65187;SDS011;51775;51.148;6.950;2023-02-14T15:22:35;5.57;;;3.25;;
65187;SDS011;51775;51.148;6.950;2023-02-14T15:25:12;4.63;;;2.90;;
65187;SDS011;51775;51.148;6.950;2023-02-14T15:27:43;5.60;;;3.47;;
65187;SDS011;51775;51.148;6.950;2023-02-14T15:32:44;5.95;;;2.85;;
65187;SDS011;51775;51.148;6.950;2023-02-14T15:35:12;4.65;;;3.00;;
65187;SDS011;51775;51.148;6.950;2023-02-14T15:37:39;4.78;;;2.95;;
65187;SDS011;51775;51.148;6.950;2023-02-14T15:40:04;5.75;;;3.00;;
65187;SDS011;51775;51.148;6.950;2023-02-14T15:42:31;5.95;;;3.17;;
65187;SDS011;51775;51.148;6.950;2023-02-14T15:47:44;4.70;;;2.83;;
65187;SDS011;51775;51.148;6.950;2023-02-14T15:50:15;6.43;;;3.03;;
65187;SDS011;51775;51.148;6.950;2023-02-14T15:52:45;6.47;;;3.28;;
65187;SDS011;51775;51.148;6.950;2023-02-14T15:55:14;5.25;;;3.20;;
65187;SDS011;51775;51.148;6.950;2023-02-14T16:00:18;5.20;;;3.08;;
65187;SDS011;51775;51.148;6.950;2023-02-14T16:02:44;7.55;;;3.30;;
65187;SDS011;51775;51.148;6.950;2023-02-14T16:05:16;7.25;;;3.30;;
65187;SDS011;51775;51.148;6.950;2023-02-14T16:08:00;5.47;;;3.22;;
65187;SDS011;51775;51.148;6.950;2023-02-14T16:10:36;5.05;;;3.20;;
65187;SDS011;51775;51.148;6.950;2023-02-14T16:15:31;5.05;;;3.10;;
65187;SDS011;51775;51.148;6.950;2023-02-14T16:17:59;7.43;;;2.90;;
65187;SDS011;51775;51.148;6.950;2023-02-14T16:20:29;4.75;;;3.03;;
65187;SDS011;51775;51.148;6.950;2023-02-14T16:23:25;4.55;;;2.95;;
65187;SDS011;51775;51.148;6.950;2023-02-14T16:25:51;5.53;;;3.13;;
65187;SDS011;51775;51.148;6.950;2023-02-14T16:28:17;5.50;;;3.30;;
65187;SDS011;51775;51.148;6.950;2023-02-14T16:30:43;6.63;;;3.13;;
65187;SDS011;51775;51.148;6.950;2023-02-14T16:33:15;5.47;;;3.25;;
65187;SDS011;51775;51.148;6.950;2023-02-14T16:35:46;4.85;;;2.95;;
65187;SDS011;51775;51.148;6.950;2023-02-14T16:38:13;5.60;;;3.20;;
65187;SDS011;51775;51.148;6.950;2023-02-14T16:40:41;5.70;;;2.90;;
65187;SDS011;51775;51.148;6.950;2023-02-14T16:43:18;4.78;;;2.88;;
65187;SDS011;51775;51.148;6.950;2023-02-14T16:45:44;5.00;;;2.85;;
65187;SDS011;51775;51.148;6.950;2023-02-14T16:48:10;4.70;;;2.65;;
65187;SDS011;51775;51.148;6.950;2023-02-14T16:50:36;5.97;;;2.60;;
65187;SDS011;51775;51.148;6.950;2023-02-14T16:53:03;4.35;;;2.63;;
65187;SDS011;51775;51.148;6.950;2023-02-14T16:55:38;4.35;;;2.80;;
65187;SDS011;51775;51.148;6.950;2023-02-14T16:58:04;4.10;;;2.78;;
65187;SDS011;51775;51.148;6.950;2023-02-14T17:00:29;4.93;;;3.03;;
65187;SDS011;51775;51.148;6.950;2023-02-14T17:02:54;4.90;;;2.78;;
65187;SDS011;51775;51.148;6.950;2023-02-14T17:05:20;5.18;;;2.88;;
65187;SDS011;51775;51.148;6.950;2023-02-14T17:07:45;4.07;;;3.00;;
65187;SDS011;51775;51.148;6.950;2023-02-14T17:10:13;5.00;;;3.03;;
65187;SDS011;51775;51.148;6.950;2023-02-14T17:12:42;4.72;;;2.95;;
65187;SDS011;51775;51.148;6.950;2023-02-14T17:15:12;4.30;;;2.90;;
65187;SDS011;51775;51.148;6.950;2023-02-14T17:17:41;4.82;;;2.90;;
65187;SDS011;51775;51.148;6.950;2023-02-14T17:20:07;4.90;;;2.70;;
65187;SDS011;51775;51.148;6.950;2023-02-14T17:22:33;4.07;;;2.78;;